Time;durP1;ratioP1;P1;durP2;ratioP2;P2;SDS_P1;SDS_P2;PMS_P1;PMS_P2;Temp;Humidity;BMP_temperature;BMP_pressure;BME280_temperature;BME280_humidity;BME280_pressure;Samples;Min_cycle;Max_cycle;Signal;HPM_P1;HPM_P2
2022/04/13 00:00:59;;;;;;;23.95;16.30;;;17.00;11.10;;;;;;5072676;28;20469;-49
2022/04/13 00:03:25;;;;;;;24.70;16.23;;;16.90;9.80;;;;;;5065441;28;20025;-44
2022/04/13 00:05:50;;;;;;;24.20;17.15;;;16.80;10.60;;;;;;5054669;28;20031;-45
2022/04/13 00:08:16;;;;;;;25.50;16.92;;;16.70;7.40;;;;;;5065912;28;20033;-45
2022/04/13 00:10:43;;;;;;;25.30;17.23;;;16.60;7.30;;;;;;5052201;28;20028;-44
2022/04/13 00:13:09;;;;;;;22.27;17.23;;;16.70;7.60;;;;;;5052782;28;20064;-44
2022/04/13 00:15:34;;;;;;;26.85;17.95;;;16.60;7.40;;;;;;5071911;28;20021;-44
2022/04/13 00:18:04;;;;;;;24.60;16.75;;;16.70;7.60;;;;;;5069684;28;20029;-44
2022/04/13 00:20:30;;;;;;;25.88;18.52;;;16.70;7.40;;;;;;5052084;28;20021;-44
2022/04/13 00:22:56;;;;;;;25.90;17.77;;;16.50;7.40;;;;;;5050823;28;20029;-45
2022/04/13 00:25:21;;;;;;;26.05;17.67;;;16.50;7.30;;;;;;5071138;28;20020;-44
2022/04/13 00:27:47;;;;;;;23.27;17.15;;;16.60;7.80;;;;;;5072049;28;20100;-44
2022/04/13 00:30:13;;;;;;;25.27;18.17;;;16.60;12.70;;;;;;5052007;28;20056;-44
2022/04/13 00:32:38;;;;;;;25.88;18.02;;;16.60;15.50;;;;;;5051904;28;20044;-44
2022/04/13 00:35:04;;;;;;;27.10;18.23;;;16.40;8.20;;;;;;5065764;28;20454;-44
2022/04/13 00:37:31;;;;;;;24.05;17.33;;;16.60;13.50;;;;;;5053486;28;20478;-44
2022/04/13 00:43:18;;;;;;;29.75;18.23;;;16.60;13.10;;;;;;5038363;28;20522;-43
2022/04/13 00:45:45;;;;;;;26.70;18.50;;;16.40;12.70;;;;;;5051607;28;20017;-43
2022/04/13 00:48:19;;;;;;;25.27;17.65;;;16.30;9.80;;;;;;5049513;28;20433;-44
2022/04/13 00:50:44;;;;;;;30.17;18.67;;;16.30;9.50;;;;;;5069515;28;20127;-44
2022/04/13 00:53:13;;;;;;;24.42;17.35;;;16.30;9.80;;;;;;5043785;28;20101;-43
2022/04/13 00:55:40;;;;;;;23.70;17.10;;;16.30;9.70;;;;;;5063860;28;20035;-44
2022/04/13 00:58:09;;;;;;;24.88;17.77;;;16.20;10.00;;;;;;5070251;28;20033;-44
2022/04/13 01:00:38;;;;;;;24.00;16.98;;;16.10;10.10;;;;;;5031539;28;20132;-44
2022/04/13 01:03:05;;;;;;;25.45;17.77;;;16.10;10.40;;;;;;5031301;28;20540;-44
2022/04/13 01:05:32;;;;;;;22.48;16.30;;;16.00;10.70;;;;;;5069145;28;20054;-44
2022/04/13 01:07:57;;;;;;;28.10;17.42;;;15.90;11.20;;;;;;5071534;28;20206;-48
2022/04/13 01:10:25;;;;;;;24.13;16.77;;;16.00;15.30;;;;;;5051513;28;20524;-46
2022/04/13 01:12:51;;;;;;;23.45;17.02;;;15.80;12.40;;;;;;5050820;28;20028;-44
2022/04/13 01:15:16;;;;;;;22.38;16.95;;;15.90;19.60;;;;;;5065164;28;20036;-43
2022/04/13 01:17:43;;;;;;;24.58;17.33;;;15.70;13.20;;;;;;5070511;28;20040;-44
2022/04/13 01:20:11;;;;;;;21.35;16.38;;;15.70;14.90;;;;;;5054241;28;20119;-44
2022/04/13 01:22:37;;;;;;;23.65;16.70;;;15.70;13.30;;;;;;5050764;28;20021;-48
2022/04/13 01:25:03;;;;;;;18.90;14.88;;;15.70;13.70;;;;;;5067232;28;20055;-45
2022/04/13 01:27:29;;;;;;;19.33;14.80;;;15.70;13.30;;;;;;5075029;28;20052;-43
2022/04/13 01:29:54;;;;;;;24.20;14.85;;;15.40;14.30;;;;;;5042907;28;20449;-43
2022/04/13 01:32:20;;;;;;;22.17;13.75;;;15.40;14.10;;;;;;5054157;28;20143;-43
2022/04/13 01:34:52;;;;;;;22.48;14.07;;;15.50;14.30;;;;;;5035938;28;20039;-44
2022/04/13 01:37:18;;;;;;;21.73;14.10;;;15.50;14.30;;;;;;5036803;28;20389;-44
2022/04/13 01:39:44;;;;;;;19.88;12.82;;;15.40;14.70;;;;;;5062731;28;20535;-44
2022/04/13 01:42:10;;;;;;;16.75;13.27;;;15.40;14.60;;;;;;5074623;28;20024;-45
2022/04/13 01:44:35;;;;;;;18.00;13.07;;;15.40;14.80;;;;;;5072781;28;20358;-44
2022/04/13 01:47:01;;;;;;;17.75;12.32;;;15.50;14.70;;;;;;5074697;28;20025;-44
2022/04/13 01:49:27;;;;;;;14.93;12.27;;;15.40;14.70;;;;;;5072318;28;20382;-46
2022/04/13 01:51:52;;;;;;;21.58;13.27;;;15.50;15.10;;;;;;5074837;28;20059;-46
2022/04/13 01:54:18;;;;;;;17.77;12.73;;;15.40;14.90;;;;;;5066595;28;20099;-44
2022/04/13 01:56:44;;;;;;;17.45;12.80;;;15.40;15.10;;;;;;5055075;28;20112;-44
2022/04/13 01:59:10;;;;;;;18.83;11.65;;;15.40;15.70;;;;;;5052343;28;20393;-44
2022/04/13 02:01:43;;;;;;;21.83;13.23;;;15.40;15.60;;;;;;5052921;28;20025;-44
2022/04/13 02:04:35;;;;;;;17.45;12.25;;;15.40;16.30;;;;;;5021337;28;20520;-44
2022/04/13 02:07:01;;;;;;;21.55;12.45;;;15.40;17.20;;;;;;5050462;28;20048;-45
2022/04/13 02:09:27;;;;;;;19.65;13.00;;;15.20;17.50;;;;;;5060014;28;20016;-44
2022/04/13 02:11:52;;;;;;;17.30;12.05;;;15.20;17.80;;;;;;5074169;28;20491;-44
2022/04/13 02:14:18;;;;;;;19.08;12.85;;;15.20;17.50;;;;;;5072110;28;20021;-44
2022/04/13 02:16:44;;;;;;;17.90;13.30;;;15.10;17.80;;;;;;5074708;28;20040;-44
2022/04/13 02:19:12;;;;;;;19.20;12.50;;;15.20;17.90;;;;;;5068367;28;20029;-44
2022/04/13 02:21:39;;;;;;;20.67;13.73;;;15.20;17.70;;;;;;5054037;28;20024;-45
2022/04/13 02:24:05;;;;;;;17.50;12.27;;;15.10;18.80;;;;;;5063314;28;20040;-45
2022/04/13 02:26:31;;;;;;;20.17;13.68;;;15.10;18.30;;;;;;5074138;28;20019;-44
2022/04/13 02:28:57;;;;;;;19.77;12.70;;;15.10;18.40;;;;;;5071520;28;20037;-44
2022/04/13 02:31:22;;;;;;;17.67;12.57;;;15.10;18.60;;;;;;5073941;28;20063;-45
2022/04/13 02:33:51;;;;;;;16.83;12.50;;;15.10;18.50;;;;;;5071617;28;20100;-44
2022/04/13 02:36:17;;;;;;;20.33;11.88;;;15.00;19.10;;;;;;5053634;28;20054;-44
2022/04/13 02:38:43;;;;;;;15.50;12.38;;;15.10;24.20;;;;;;5054264;28;20429;-44
2022/04/13 02:41:08;;;;;;;19.17;12.48;;;15.10;22.40;;;;;;5053771;28;20021;-44
2022/04/13 02:43:34;;;;;;;19.67;12.38;;;15.10;22.30;;;;;;5073939;28;20024;-44
2022/04/13 02:46:00;;;;;;;18.90;13.20;;;15.10;21.60;;;;;;5038669;28;20035;-45
2022/04/13 02:48:25;;;;;;;19.50;13.82;;;15.00;21.60;;;;;;5015801;28;20030;-45
2022/04/13 02:50:52;;;;;;;19.25;13.68;;;15.00;22.90;;;;;;5065304;28;20094;-46
2022/04/13 02:53:18;;;;;;;16.77;13.02;;;15.00;23.50;;;;;;5073944;28;20025;-44
2022/04/13 02:55:44;;;;;;;18.17;12.73;;;15.10;24.60;;;;;;5066660;28;20036;-44
2022/04/13 02:58:10;;;;;;;18.35;13.30;;;15.10;22.40;;;;;;5070782;28;20036;-45
2022/04/13 03:00:36;;;;;;;19.65;13.20;;;15.20;22.70;;;;;;5066524;28;20021;-47
2022/04/13 03:03:02;;;;;;;18.23;13.60;;;15.00;23.10;;;;;;5073245;28;20393;-45
2022/04/13 03:05:32;;;;;;;21.02;12.98;;;15.10;23.60;;;;;;5058978;28;20036;-46
2022/04/13 03:07:57;;;;;;;20.42;13.77;;;15.10;25.10;;;;;;5053269;28;20115;-44
2022/04/13 03:10:23;;;;;;;15.60;12.43;;;15.00;25.20;;;;;;5052182;28;20044;-44
2022/04/13 03:12:48;;;;;;;18.40;13.35;;;14.90;23.90;;;;;;5053119;28;20024;-44
2022/04/13 03:15:14;;;;;;;20.77;13.35;;;14.90;23.90;;;;;;5061883;28;20370;-45
2022/04/13 03:17:40;;;;;;;20.05;13.50;;;14.90;24.10;;;;;;5072810;28;20454;-44
2022/04/13 03:20:07;;;;;;;17.73;12.90;;;14.80;23.70;;;;;;5061484;28;20453;-44
2022/04/13 03:22:33;;;;;;;20.23;12.80;;;14.70;22.00;;;;;;5053187;28;20025;-51
2022/04/13 03:25:03;;;;;;;18.90;12.05;;;14.80;21.80;;;;;;5051960;28;20502;-48
2022/04/13 03:27:29;;;;;;;19.08;13.05;;;14.80;21.90;;;;;;5051823;28;20470;-44
2022/04/13 03:29:54;;;;;;;18.70;13.18;;;14.80;21.70;;;;;;5051780;28;20025;-44
2022/04/13 03:32:20;;;;;;;22.55;13.27;;;14.80;22.10;;;;;;5034943;28;20037;-44
2022/04/13 03:34:46;;;;;;;16.77;12.90;;;14.70;21.70;;;;;;5057119;28;20496;-45
2022/04/13 03:37:11;;;;;;;16.58;12.18;;;14.60;21.60;;;;;;5073152;28;20056;-44
2022/04/13 03:39:37;;;;;;;20.33;13.93;;;14.70;21.70;;;;;;5066731;28;20354;-45
2022/04/13 03:42:03;;;;;;;20.00;13.25;;;14.60;22.10;;;;;;5052323;28;20351;-44
2022/04/13 03:44:29;;;;;;;21.10;13.30;;;14.60;22.40;;;;;;5053062;28;20033;-45
2022/04/13 03:46:55;;;;;;;20.58;13.88;;;14.50;22.40;;;;;;5071673;28;20093;-44
2022/04/13 03:49:21;;;;;;;18.30;12.88;;;14.50;22.00;;;;;;5070328;28;20033;-44
2022/04/13 03:51:46;;;;;;;20.23;14.20;;;14.40;22.80;;;;;;5072452;28;20017;-45
2022/04/13 03:54:12;;;;;;;20.65;14.73;;;14.40;22.60;;;;;;5067926;28;20032;-44
2022/04/13 03:56:38;;;;;;;19.02;13.63;;;14.50;22.70;;;;;;5059823;28;20110;-44
2022/04/13 03:59:07;;;;;;;18.67;13.77;;;14.40;22.90;;;;;;5052329;28;20079;-45
2022/04/13 04:01:33;;;;;;;21.48;13.95;;;14.40;23.10;;;;;;5053769;28;20036;-44
2022/04/13 04:03:59;;;;;;;20.77;13.60;;;14.50;24.70;;;;;;5072573;28;20031;-44
2022/04/13 04:06:25;;;;;;;20.48;14.50;;;14.50;25.20;;;;;;5051888;28;20025;-44
2022/04/13 04:08:51;;;;;;;19.08;13.82;;;14.40;25.20;;;;;;5051075;28;20075;-44
2022/04/13 04:11:17;;;;;;;19.17;12.90;;;14.50;25.60;;;;;;5051123;28;20075;-44
2022/04/13 04:13:43;;;;;;;16.83;13.93;;;14.40;26.20;;;;;;5034075;28;20036;-48
2022/04/13 04:16:09;;;;;;;18.02;14.15;;;14.50;28.00;;;;;;5051133;28;20032;-50
2022/04/13 04:18:34;;;;;;;19.52;13.98;;;14.40;27.60;;;;;;5051824;28;20040;-44
2022/04/13 04:21:00;;;;;;;21.13;14.82;;;14.50;28.10;;;;;;5050951;28;20021;-44
2022/04/13 04:23:26;;;;;;;20.92;14.63;;;14.40;28.50;;;;;;5051802;28;20143;-44
2022/04/13 04:25:52;;;;;;;22.40;14.40;;;14.50;27.90;;;;;;5063977;28;20028;-45
2022/04/13 04:28:17;;;;;;;23.73;14.57;;;14.60;27.40;;;;;;5072164;28;20028;-44
2022/04/13 04:30:43;;;;;;;19.25;14.38;;;14.50;28.40;;;;;;5046432;28;20033;-44
2022/04/13 04:33:12;;;;;;;19.17;14.50;;;14.50;29.00;;;;;;5030498;28;20026;-44
2022/04/13 04:35:39;;;;;;;19.50;13.98;;;14.60;28.70;;;;;;5053836;28;20051;-44
2022/04/13 04:38:05;;;;;;;16.58;13.23;;;14.60;28.80;;;;;;5071792;28;20020;-44
2022/04/13 04:40:30;;;;;;;26.00;15.23;;;14.40;28.50;;;;;;5060360;28;20025;-44
2022/04/13 04:42:58;;;;;;;20.65;14.13;;;14.50;28.70;;;;;;5050249;28;20417;-44
2022/04/13 04:45:24;;;;;;;23.98;15.05;;;14.40;28.80;;;;;;5050962;28;20021;-44
2022/04/13 04:47:51;;;;;;;23.77;15.60;;;14.40;28.90;;;;;;5051775;28;20166;-44
2022/04/13 04:50:18;;;;;;;24.63;15.68;;;14.50;28.90;;;;;;5055424;28;20072;-44
2022/04/13 04:52:45;;;;;;;19.45;14.60;;;14.50;29.50;;;;;;5071827;28;20560;-44
2022/04/13 04:55:13;;;;;;;26.63;15.50;;;14.40;29.40;;;;;;5061206;28;20063;-44
2022/04/13 04:57:40;;;;;;;23.05;15.57;;;14.40;29.80;;;;;;5073432;28;20386;-44
2022/04/13 05:00:08;;;;;;;23.10;15.65;;;14.50;30.90;;;;;;5068325;28;20454;-44
2022/04/13 05:02:55;;;;;;;24.98;15.57;;;14.40;30.00;;;;;;5055678;28;20102;-44
2022/04/13 05:05:22;;;;;;;25.00;16.02;;;14.50;32.40;;;;;;5061742;28;20074;-44
2022/04/13 05:07:48;;;;;;;23.25;16.05;;;14.40;30.70;;;;;;5075370;28;20032;-44
2022/04/13 05:10:14;;;;;;;24.80;16.10;;;14.40;29.90;;;;;;5067453;28;20029;-45
2022/04/13 05:12:53;;;;;;;26.45;16.10;;;14.30;31.20;;;;;;5055171;28;20067;-44
2022/04/13 05:15:19;;;;;;;24.23;16.50;;;14.20;31.10;;;;;;5053157;28;20071;-45
2022/04/13 05:17:44;;;;;;;25.25;15.93;;;14.40;31.40;;;;;;5055120;28;20469;-45
2022/04/13 05:20:11;;;;;;;24.80;15.25;;;14.40;32.60;;;;;;5060568;28;20055;-44
2022/04/13 05:22:37;;;;;;;19.83;15.13;;;14.30;24.70;;;;;;5075258;28;20493;-44
2022/04/13 05:25:07;;;;;;;26.38;16.67;;;14.20;25.20;;;;;;5071362;28;20024;-44
2022/04/13 05:27:32;;;;;;;26.48;16.15;;;14.40;25.50;;;;;;5075099;28;20521;-47
2022/04/13 05:29:58;;;;;;;26.33;16.73;;;14.40;25.90;;;;;;5070051;28;20016;-49
2022/04/13 05:32:24;;;;;;;25.70;15.98;;;14.50;28.40;;;;;;5055098;28;20064;-46
2022/04/13 05:34:49;;;;;;;20.45;15.43;;;14.50;27.60;;;;;;5055760;28;20036;-44
2022/04/13 05:37:15;;;;;;;26.83;15.80;;;14.50;26.80;;;;;;5074861;28;20043;-44
2022/04/13 05:39:41;;;;;;;25.58;16.33;;;14.40;27.60;;;;;;5073184;28;20040;-45
2022/04/13 05:42:07;;;;;;;30.15;15.68;;;14.40;26.90;;;;;;5034660;28;20048;-46
2022/04/13 05:44:32;;;;;;;23.83;15.50;;;14.30;27.30;;;;;;5016785;28;20192;-44
2022/04/13 05:47:20;;;;;;;28.90;15.70;;;14.40;30.60;;;;;;5054161;28;20163;-44
2022/04/13 05:49:46;;;;;;;22.02;15.65;;;14.40;28.00;;;;;;5036322;28;20053;-45
2022/04/13 05:52:12;;;;;;;21.73;15.38;;;14.30;23.10;;;;;;5072098;28;20036;-44
2022/04/13 05:54:37;;;;;;;26.00;16.35;;;14.40;23.00;;;;;;5055337;28;20056;-44
2022/04/13 05:57:03;;;;;;;22.00;15.02;;;14.30;23.40;;;;;;5055639;28;20029;-44
2022/04/13 05:59:30;;;;;;;22.38;15.05;;;14.30;23.50;;;;;;5074283;28;20036;-44
2022/04/13 06:01:55;;;;;;;24.35;16.10;;;14.10;23.70;;;;;;5054244;28;20021;-44
2022/04/13 06:04:25;;;;;;;24.63;16.10;;;14.20;24.20;;;;;;5036261;28;20060;-44
2022/04/13 06:06:51;;;;;;;27.65;17.33;;;14.20;24.00;;;;;;5070662;28;20484;-44
2022/04/13 06:09:17;;;;;;;23.67;15.55;;;14.30;24.00;;;;;;5073653;28;20020;-44
2022/04/13 06:11:43;;;;;;;23.55;15.93;;;14.40;23.60;;;;;;5038134;28;20381;-44
2022/04/13 06:14:08;;;;;;;27.77;16.40;;;14.30;24.30;;;;;;5054078;28;20032;-45
2022/04/13 06:16:34;;;;;;;21.45;15.77;;;14.40;23.80;;;;;;5053414;28;20021;-44
2022/04/13 06:18:59;;;;;;;22.00;15.82;;;14.30;23.50;;;;;;5058647;28;20449;-46
2022/04/13 06:21:25;;;;;;;21.85;15.57;;;14.40;23.70;;;;;;5061230;28;20458;-44
2022/04/13 06:23:51;;;;;;;21.75;15.27;;;14.50;23.70;;;;;;5056074;28;20554;-48
2022/04/13 06:26:17;;;;;;;24.90;15.73;;;14.50;23.30;;;;;;5059902;28;20067;-44
2022/04/13 06:28:43;;;;;;;23.92;15.93;;;14.30;23.50;;;;;;5053872;28;20036;-44
2022/04/13 06:31:09;;;;;;;22.63;14.38;;;14.30;24.20;;;;;;5053523;28;20025;-44
2022/04/13 06:33:35;;;;;;;18.77;13.63;;;14.30;23.90;;;;;;5053510;28;20063;-44
2022/04/13 06:36:01;;;;;;;21.17;13.82;;;14.30;24.10;;;;;;5052889;28;20021;-45
2022/04/13 06:38:27;;;;;;;19.52;13.90;;;14.30;24.30;;;;;;5053877;28;20037;-45
2022/04/13 06:40:53;;;;;;;23.35;14.45;;;14.50;24.40;;;;;;5059666;28;20028;-44
2022/04/13 06:43:18;;;;;;;23.55;14.27;;;14.50;25.50;;;;;;5073785;28;20103;-45
2022/04/13 06:45:44;;;;;;;21.15;14.80;;;14.30;23.80;;;;;;5065142;28;20025;-44
2022/04/13 06:48:10;;;;;;;21.08;13.85;;;14.20;21.70;;;;;;5053503;28;20043;-44
2022/04/13 06:50:36;;;;;;;24.05;13.65;;;14.40;21.10;;;;;;5034063;28;20154;-44
2022/04/13 06:53:01;;;;;;;18.83;13.10;;;14.40;20.70;;;;;;5052665;28;20043;-45
2022/04/13 06:55:27;;;;;;;22.85;12.98;;;14.40;20.50;;;;;;5062599;28;20021;-44
2022/04/13 06:57:53;;;;;;;17.17;12.38;;;14.50;20.30;;;;;;5053256;28;20078;-43
2022/04/13 07:00:19;;;;;;;20.17;13.23;;;14.50;19.50;;;;;;5052583;28;20041;-44
2022/04/13 07:02:44;;;;;;;19.33;12.32;;;14.40;19.60;;;;;;5053396;28;20025;-46
2022/04/13 07:05:11;;;;;;;24.05;12.32;;;14.60;19.40;;;;;;5052039;28;20498;-43
2022/04/13 07:07:37;;;;;;;19.55;12.82;;;14.70;19.10;;;;;;5073491;28;20112;-43
2022/04/13 07:10:03;;;;;;;18.83;12.27;;;14.80;18.10;;;;;;5071173;28;20111;-44
2022/04/13 07:12:36;;;;;;;19.83;13.15;;;14.60;18.40;;;;;;5053395;28;20040;-44
2022/04/13 07:15:05;;;;;;;17.90;12.57;;;14.70;18.00;;;;;;5051275;28;20047;-46
2022/04/13 07:17:30;;;;;;;23.35;12.75;;;14.80;18.00;;;;;;5032973;28;20056;-43
2022/04/13 07:19:56;;;;;;;19.05;13.60;;;14.80;18.60;;;;;;5032821;28;20042;-43
2022/04/13 07:22:22;;;;;;;18.77;12.55;;;14.90;18.00;;;;;;5052726;28;20041;-44
2022/04/13 07:24:47;;;;;;;17.95;13.93;;;15.00;18.30;;;;;;5073054;28;20179;-44
2022/04/13 07:27:13;;;;;;;17.80;12.13;;;15.10;18.40;;;;;;5070641;28;20060;-44
2022/04/13 07:29:39;;;;;;;18.95;13.65;;;15.10;18.80;;;;;;5072588;28;20427;-43
2022/04/13 07:32:06;;;;;;;20.13;14.32;;;15.20;18.20;;;;;;5044700;28;20099;-44
2022/04/13 07:34:32;;;;;;;19.02;13.23;;;15.20;18.10;;;;;;5031462;28;20120;-43
2022/04/13 07:36:58;;;;;;;20.80;13.50;;;15.30;18.40;;;;;;5047577;28;20094;-47
2022/04/13 07:39:24;;;;;;;23.35;13.75;;;15.30;18.10;;;;;;5051707;28;20486;-45
2022/04/13 07:41:50;;;;;;;19.80;13.52;;;15.40;17.80;;;;;;5032255;28;20029;-45
2022/04/13 07:44:15;;;;;;;24.77;13.85;;;15.40;17.80;;;;;;5052461;28;20107;-44
2022/04/13 07:46:47;;;;;;;19.73;13.80;;;15.40;18.20;;;;;;5051483;28;20392;-44
2022/04/13 07:49:13;;;;;;;22.30;14.05;;;15.40;17.90;;;;;;5051057;28;20064;-45
2022/04/13 07:51:41;;;;;;;19.50;12.93;;;15.40;17.90;;;;;;5062362;28;20052;-44
2022/04/13 07:54:07;;;;;;;19.95;14.13;;;15.40;17.80;;;;;;5072542;28;20063;-44
2022/04/13 08:03:17;;;;;;;25.58;14.63;;;15.60;17.10;;;;;;5040153;28;20031;-41
2022/04/13 08:05:43;;;;;;;22.63;14.27;;;15.70;17.60;;;;;;5049762;28;20033;-43
2022/04/13 08:08:09;;;;;;;21.75;13.63;;;15.80;17.10;;;;;;5051441;28;20047;-44
2022/04/13 08:10:34;;;;;;;18.50;12.68;;;15.80;16.90;;;;;;5054287;28;20041;-42
2022/04/13 08:13:00;;;;;;;19.33;12.45;;;15.80;16.60;;;;;;5051719;28;20070;-45
2022/04/13 08:15:26;;;;;;;17.63;12.45;;;15.80;16.90;;;;;;5051344;28;20474;-43
2022/04/13 08:17:51;;;;;;;17.40;11.75;;;15.80;16.70;;;;;;5051938;28;20040;-43
2022/04/13 08:20:17;;;;;;;17.88;11.88;;;15.80;16.80;;;;;;5051404;28;20040;-43
2022/04/13 08:22:46;;;;;;;20.92;12.88;;;15.90;16.60;;;;;;5051409;28;20032;-45
2022/04/13 08:25:12;;;;;;;22.45;12.73;;;16.00;16.30;;;;;;5033817;28;20470;-43
2022/04/13 08:27:38;;;;;;;18.90;12.32;;;15.90;16.70;;;;;;5046978;28;20029;-43
2022/04/13 08:30:04;;;;;;;19.58;11.88;;;15.90;16.50;;;;;;5051884;28;20033;-44
2022/04/13 08:32:31;;;;;;;19.05;11.80;;;16.00;16.50;;;;;;5032830;28;20040;-43
2022/04/13 08:34:56;;;;;;;17.92;11.32;;;16.10;15.70;;;;;;5066662;28;20043;-44
2022/04/13 08:37:24;;;;;;;18.23;10.95;;;16.00;15.70;;;;;;5051897;28;20028;-44
2022/04/13 08:39:50;;;;;;;16.00;11.40;;;16.10;15.30;;;;;;5059860;28;20032;-44
2022/04/13 08:42:37;;;;;;;16.27;11.55;;;16.10;15.10;;;;;;5050905;28;20031;-44
2022/04/13 08:45:22;;;;;;;19.80;11.43;;;16.20;15.10;;;;;;5052152;28;20086;-43
2022/04/13 08:47:49;;;;;;;17.13;10.60;;;16.30;14.90;;;;;;5051587;28;20040;-43
2022/04/13 08:50:17;;;;;;;17.58;11.55;;;16.40;15.00;;;;;;5051471;28;20037;-43
2022/04/13 08:52:47;;;;;;;19.27;11.02;;;16.40;15.80;;;;;;5068572;28;20042;-47
2022/04/13 08:55:16;;;;;;;15.52;11.73;;;16.50;16.20;;;;;;5050320;28;20490;-44
2022/04/13 08:57:50;;;;;;;19.67;14.52;;;16.60;17.40;;;;;;5050711;28;20146;-43
2022/04/13 09:00:18;;;;;;;20.63;12.68;;;16.80;17.60;;;;;;5051480;28;20051;-43
2022/04/13 09:03:16;;;;;;;18.48;12.13;;;16.80;16.20;;;;;;5067611;28;20021;-47
2022/04/13 09:05:45;;;;;;;15.32;10.82;;;16.90;15.10;;;;;;5068965;28;20052;-43
2022/04/13 09:08:44;;;;;;;17.95;12.05;;;16.90;13.90;;;;;;5051586;28;20092;-43
2022/04/13 09:11:12;;;;;;;21.75;11.50;;;17.00;16.80;;;;;;5054869;28;20051;-43
2022/04/13 09:13:38;;;;;;;15.95;11.05;;;17.00;13.20;;;;;;5071598;28;20025;-43
2022/04/13 09:16:04;;;;;;;18.33;12.05;;;17.00;12.80;;;;;;5066333;28;20082;-43
2022/04/13 09:18:30;;;;;;;13.60;11.00;;;17.10;12.60;;;;;;5051474;28;20064;-43
2022/04/13 09:20:57;;;;;;;21.35;11.90;;;17.10;12.40;;;;;;5049594;28;20506;-42
2022/04/13 09:23:23;;;;;;;18.70;11.30;;;17.20;12.70;;;;;;5051293;28;20061;-43
2022/04/13 09:25:53;;;;;;;20.30;11.73;;;17.20;12.40;;;;;;5051265;28;20466;-46
2022/04/13 09:28:20;;;;;;;16.58;10.80;;;17.20;12.00;;;;;;5071470;28;20031;-43
2022/04/13 09:30:46;;;;;;;13.07;9.68;;;17.30;13.10;;;;;;5061541;28;20351;-44
2022/04/13 09:33:11;;;;;;;17.67;10.00;;;17.40;14.10;;;;;;5064698;28;20065;-43
2022/04/13 09:35:37;;;;;;;16.80;11.75;;;17.50;18.50;;;;;;5065471;28;20110;-44
2022/04/13 09:38:03;;;;;;;13.98;10.18;;;17.40;10.10;;;;;;5061894;28;20025;-43
2022/04/13 09:40:30;;;;;;;17.27;11.80;;;17.50;9.40;;;;;;5061651;28;20036;-42
2022/04/13 09:43:16;;;;;;;16.63;10.77;;;17.70;17.00;;;;;;5048258;28;20116;-43
2022/04/13 09:45:46;;;;;;;12.80;11.10;;;17.70;10.40;;;;;;5064093;28;20449;-43
2022/04/13 09:48:14;;;;;;;17.85;12.20;;;17.80;10.60;;;;;;5053445;28;20035;-43
2022/04/13 09:50:42;;;;;;;20.48;12.15;;;17.80;10.70;;;;;;5054256;28;20056;-44
2022/04/13 09:53:09;;;;;;;19.77;12.10;;;17.80;10.70;;;;;;5056624;28;20093;-43
2022/04/13 09:55:43;;;;;;;13.93;11.30;;;17.90;11.40;;;;;;5069973;28;20033;-43
2022/04/13 09:58:14;;;;;;;21.48;12.05;;;17.90;10.50;;;;;;5069066;28;20033;-44
2022/04/13 10:00:41;;;;;;;16.80;11.68;;;17.90;10.50;;;;;;5068884;28;20040;-43
2022/04/13 10:03:09;;;;;;;18.00;12.68;;;18.00;11.20;;;;;;5054426;28;20029;-46
2022/04/13 10:05:35;;;;;;;17.10;12.48;;;18.10;10.00;;;;;;5053548;28;20029;-43
2022/04/13 10:08:11;;;;;;;16.73;11.85;;;18.20;14.20;;;;;;5064916;28;20115;-43
2022/04/13 10:10:57;;;;;;;18.08;11.93;;;18.30;12.20;;;;;;5064751;28;20397;-42
2022/04/13 10:13:32;;;;;;;18.20;12.07;;;18.30;13.70;;;;;;5062629;28;20476;-45
2022/04/13 10:15:59;;;;;;;17.98;11.90;;;18.40;13.00;;;;;;5065203;28;20044;-44
2022/04/13 10:18:24;;;;;;;20.55;12.32;;;18.30;10.40;;;;;;5062930;28;20086;-43
2022/04/13 10:20:50;;;;;;;17.88;12.68;;;18.40;11.20;;;;;;5053746;28;20032;-43
2022/04/13 10:23:16;;;;;;;15.13;11.40;;;18.50;10.40;;;;;;5063772;28;20067;-46
2022/04/13 10:25:43;;;;;;;19.55;12.52;;;18.50;10.10;;;;;;5073989;28;20191;-47
2022/04/13 10:28:12;;;;;;;18.42;12.57;;;18.60;15.80;;;;;;5062395;28;20025;-44
2022/04/13 10:30:40;;;;;;;19.75;12.05;;;18.80;12.30;;;;;;5060871;28;20035;-43
2022/04/13 10:33:13;;;;;;;17.15;11.60;;;18.80;13.70;;;;;;5053944;28;20050;-45
2022/04/13 10:35:44;;;;;;;15.85;11.02;;;18.70;9.50;;;;;;5069631;28;20032;-45
2022/04/13 10:38:12;;;;;;;17.08;12.02;;;18.70;9.20;;;;;;5064221;28;20035;-44
2022/04/13 10:40:40;;;;;;;17.92;11.70;;;18.80;9.20;;;;;;5056193;28;20029;-44
2022/04/13 10:43:07;;;;;;;17.52;12.00;;;19.00;15.40;;;;;;5051914;28;20057;-47
2022/04/13 10:45:34;;;;;;;17.52;11.18;;;19.10;11.30;;;;;;5053993;28;20025;-45
2022/04/13 10:48:09;;;;;;;21.02;13.57;;;19.10;10.50;;;;;;5041993;28;20024;-48
2022/04/13 10:50:40;;;;;;;19.40;13.10;;;19.20;9.10;;;;;;5073312;28;20087;-44
2022/04/13 10:53:12;;;;;;;19.08;13.02;;;19.30;8.50;;;;;;5071463;28;20032;-44
2022/04/13 10:55:38;;;;;;;18.92;11.65;;;19.20;8.00;;;;;;5068738;28;20020;-43
2022/04/13 10:58:26;;;;;;;15.82;11.43;;;19.50;7.70;;;;;;5058199;28;20040;-43
2022/04/13 11:01:01;;;;;;;17.83;12.27;;;19.40;7.60;;;;;;5061499;28;20414;-45
2022/04/13 11:03:32;;;;;;;22.58;13.50;;;19.50;7.80;;;;;;5070164;28;20127;-43
2022/04/13 11:05:58;;;;;;;18.65;12.93;;;19.50;8.20;;;;;;5063599;28;20024;-44
2022/04/13 11:08:35;;;;;;;19.40;12.02;;;19.50;7.80;;;;;;5040947;28;20137;-43
2022/04/13 11:11:02;;;;;;;15.30;11.57;;;19.70;10.70;;;;;;5070307;28;20382;-43
2022/04/13 11:13:32;;;;;;;19.25;12.13;;;19.60;7.80;;;;;;5042158;28;20037;-43
2022/04/13 11:16:22;;;;;;;19.42;12.18;;;19.80;8.20;;;;;;5057587;28;20039;-43
2022/04/13 11:19:06;;;;;;;15.98;11.43;;;19.90;16.30;;;;;;5059457;28;20028;-43
2022/04/13 11:21:32;;;;;;;18.98;13.77;;;;;;;;;;5045973;28;20462;-43
2022/04/13 11:23:58;;;;;;;18.85;13.02;;;20.20;6.50;;;;;;5050725;28;20025;-43
2022/04/13 11:26:33;;;;;;;22.92;14.68;;;20.10;7.00;;;;;;5069328;28;20024;-43
2022/04/13 11:29:21;;;;;;;18.30;13.25;;;20.40;11.20;;;;;;5055032;28;20031;-43
2022/04/13 11:32:01;;;;;;;23.25;14.10;;;20.40;6.40;;;;;;5046734;28;20017;-43
2022/04/13 11:34:31;;;;;;;18.73;12.35;;;20.60;10.60;;;;;;5062092;28;20095;-42
2022/04/13 11:37:02;;;;;;;19.08;11.85;;;20.80;6.30;;;;;;5051843;28;20374;-42
2022/04/13 11:40:07;;;;;;;18.40;12.80;;;20.80;11.30;;;;;;5067878;28;20052;-43
2022/04/13 11:42:36;;;;;;;21.48;12.23;;;20.80;8.60;;;;;;5054743;28;20047;-43
2022/04/13 11:45:08;;;;;;;18.50;12.35;;;21.00;6.00;;;;;;5056020;28;20065;-43
2022/04/13 11:47:50;;;;;;;16.75;12.65;;;21.00;6.00;;;;;;5058816;28;20071;-45
2022/04/13 11:50:18;;;;;;;18.08;12.68;;;21.30;9.40;;;;;;5051088;28;20478;-43
2022/04/13 11:52:59;;;;;;;19.17;12.65;;;21.50;12.20;;;;;;5057946;28;20025;-43
2022/04/13 11:55:25;;;;;;;17.05;12.07;;;;;;;;;;5062205;28;20327;-43
2022/04/13 11:58:04;;;;;;;16.65;13.07;;;21.60;5.00;;;;;;5053381;28;20058;-42
2022/04/13 12:00:42;;;;;;;19.52;12.98;;;21.60;11.30;;;;;;5062376;28;20490;-43
2022/04/13 12:03:13;;;;;;;18.58;12.82;;;21.70;10.00;;;;;;5054173;28;20037;-43
2022/04/13 12:05:43;;;;;;;17.10;13.52;;;21.90;4.70;;;;;;5055307;28;20036;-44
2022/04/13 12:08:16;;;;;;;16.13;11.63;;;22.10;4.60;;;;;;5067048;28;20484;-44
2022/04/13 12:10:49;;;;;;;24.73;17.02;;;;;;;;;;5067822;28;20491;-43
2022/04/13 12:13:16;;;;;;;19.20;12.90;;;23.80;5.00;;;;;;5057224;28;20037;-44
2022/04/13 12:15:53;;;;;;;16.85;13.45;;;24.80;1.70;;;;;;5052133;28;20295;-43
2022/04/13 12:18:24;;;;;;;18.92;14.18;;;25.80;1.00;;;;;;5053252;28;20086;-44
2022/04/13 12:20:51;;;;;;;15.70;13.05;;;25.50;1.00;;;;;;5070414;28;20036;-45
2022/04/13 12:23:26;;;;;;;17.75;13.02;;;26.00;1.00;;;;;;5065572;28;20112;-43
2022/04/13 12:25:56;;;;;;;16.70;13.80;;;26.10;1.00;;;;;;5056733;28;20025;-43
2022/04/13 12:28:23;;;;;;;16.58;14.13;;;26.70;1.00;;;;;;5051476;28;20024;-44
2022/04/13 12:31:08;;;;;;;17.15;13.73;;;26.50;1.70;;;;;;5046281;28;20022;-43
2022/04/13 12:33:37;;;;;;;19.35;14.55;;;26.00;2.40;;;;;;5054166;28;20115;-42
2022/04/13 12:36:03;;;;;;;20.08;13.80;;;26.50;1.00;;;;;;5072476;28;20028;-43
2022/04/13 12:38:30;;;;;;;18.50;14.02;;;27.80;4.80;;;;;;5061283;28;20102;-43
2022/04/13 12:41:02;;;;;;;18.65;13.88;;;30.70;8.80;;;;;;5070436;28;20104;-43
2022/04/13 12:43:28;;;;;;;16.85;13.75;;;33.00;1.00;;;;;;5039789;28;20378;-45
2022/04/13 12:45:55;;;;;;;17.77;13.90;;;34.10;13.10;;;;;;5042083;28;20031;-44